Time;durP1;ratioP1;P1;durP2;ratioP2;P2;SDS_P1;SDS_P2;PMS_P1;PMS_P2;Temp;Humidity;BMP_temperature;BMP_pressure;BME280_temperature;BME280_humidity;BME280_pressure;Samples;Min_cycle;Max_cycle;Signal;HPM_P1;HPM_P2
2021/12/21 00:02:25;;;;;;;20.00;13.80;;;-0.80;99.90;;;;;;5113411;27;20043;-70
2021/12/21 00:04:51;;;;;;;23.75;14.00;;;-0.80;99.90;;;;;;5118506;27;20118;-69
2021/12/21 00:07:16;;;;;;;22.10;13.40;;;-0.70;99.90;;;;;;5119888;27;20103;-70
2021/12/21 00:09:42;;;;;;;21.17;12.75;;;-0.70;99.90;;;;;;5120899;27;20683;-70
2021/12/21 00:12:09;;;;;;;24.05;13.68;;;-0.70;99.90;;;;;;5153296;27;20092;-70
2021/12/21 00:14:51;;;;;;;21.70;13.95;;;-0.70;99.90;;;;;;5114625;27;20043;-70
2021/12/21 00:17:32;;;;;;;19.25;12.63;;;-0.70;99.90;;;;;;5121682;27;20051;-70
2021/12/21 00:20:11;;;;;;;22.00;13.82;;;-0.70;99.90;;;;;;5124689;27;20114;-70
2021/12/21 00:25:20;;;;;;;20.48;12.68;;;-0.80;99.90;;;;;;5122501;27;20043;-71
2021/12/21 00:27:48;;;;;;;21.10;13.38;;;-0.80;99.90;;;;;;5116305;27;20039;-70
2021/12/21 00:30:15;;;;;;;21.60;12.77;;;-0.80;99.90;;;;;;5122835;27;20540;-70
2021/12/21 00:32:41;;;;;;;24.60;13.02;;;-0.80;99.90;;;;;;5124552;27;20443;-70
2021/12/21 00:35:07;;;;;;;22.48;12.65;;;-0.80;99.90;;;;;;5111072;27;20044;-70
2021/12/21 00:37:32;;;;;;;24.25;13.00;;;-0.90;99.90;;;;;;5117243;27;20043;-70
2021/12/21 00:39:58;;;;;;;22.50;13.40;;;-0.90;99.90;;;;;;5115761;27;20697;-70
2021/12/21 00:42:24;;;;;;;22.70;12.55;;;-0.90;99.90;;;;;;5115585;27;20081;-70
2021/12/21 00:44:49;;;;;;;19.00;12.43;;;-0.90;99.90;;;;;;5123915;27;20050;-70
2021/12/21 00:47:16;;;;;;;18.88;12.40;;;-0.90;99.90;;;;;;5120642;27;20039;-70
2021/12/21 00:49:47;;;;;;;23.13;12.97;;;-0.90;99.80;;;;;;5125573;27;20056;-70
2021/12/21 00:52:14;;;;;;;20.00;12.43;;;-0.90;99.60;;;;;;5120842;27;20043;-70
2021/12/21 00:54:40;;;;;;;20.47;13.43;;;-0.90;99.80;;;;;;5114299;27;20431;-70
2021/12/21 00:57:06;;;;;;;20.75;13.00;;;-1.00;99.70;;;;;;5122749;27;20050;-70
2021/12/21 00:59:32;;;;;;;22.70;13.85;;;-1.00;99.70;;;;;;5124524;27;20583;-70
2021/12/21 01:01:58;;;;;;;20.60;13.57;;;-1.00;99.70;;;;;;5150551;27;20039;-70
2021/12/21 01:04:30;;;;;;;22.88;13.52;;;-1.00;99.70;;;;;;5114930;27;20050;-70
2021/12/21 01:12:17;;;;;;;23.98;14.25;;;-1.10;99.80;;;;;;5116463;27;20039;-70
2021/12/21 01:15:04;;;;;;;25.40;13.88;;;-1.20;99.80;;;;;;5126348;27;20042;-70
2021/12/21 01:17:46;;;;;;;19.63;14.10;;;-1.20;99.90;;;;;;5119139;27;20170;-70
2021/12/21 01:20:26;;;;;;;23.02;13.80;;;-1.30;99.90;;;;;;5118957;27;20046;-70
2021/12/21 01:28:14;;;;;;;23.17;13.57;;;-1.20;99.90;;;;;;5125217;27;20051;-70
2021/12/21 01:36:01;;;;;;;19.35;14.13;;;-1.20;99.90;;;;;;5118434;27;20758;-70
2021/12/21 01:38:35;;;;;;;28.08;14.48;;;-1.20;99.90;;;;;;5126043;27;20122;-70
2021/12/21 01:41:09;;;;;;;19.98;13.60;;;-1.20;99.90;;;;;;5123373;27;20046;-70
2021/12/21 01:43:53;;;;;;;20.40;13.50;;;-1.20;99.90;;;;;;5117612;27;20497;-70
2021/12/21 01:51:47;;;;;;;19.33;13.00;;;-1.20;99.90;;;;;;5120677;28;20047;-70
2021/12/21 01:54:13;;;;;;;24.40;14.52;;;-1.20;99.80;;;;;;5143499;27;20493;-70
2021/12/21 01:56:39;;;;;;;20.58;13.75;;;-1.20;99.90;;;;;;5119849;28;20039;-70
2021/12/21 01:59:04;;;;;;;24.27;14.18;;;-1.20;99.90;;;;;;5110857;28;20130;-70
2021/12/21 02:01:30;;;;;;;22.98;13.98;;;-1.30;99.90;;;;;;5108536;28;20284;-70
2021/12/21 02:03:56;;;;;;;28.67;13.38;;;-1.30;99.80;;;;;;5140910;27;20095;-70
2021/12/21 02:06:26;;;;;;;27.73;14.70;;;-1.30;99.90;;;;;;5118289;27;20093;-70
2021/12/21 02:08:51;;;;;;;25.38;15.82;;;-1.30;99.90;;;;;;5116452;28;20070;-70
2021/12/21 02:11:19;;;;;;;25.90;16.27;;;-1.30;99.90;;;;;;5122656;27;20435;-69
2021/12/21 02:13:48;;;;;;;23.88;15.27;;;-1.30;99.90;;;;;;5124187;27;20116;-70
2021/12/21 02:16:22;;;;;;;26.88;16.42;;;-1.30;99.90;;;;;;5122040;27;20115;-70
2021/12/21 02:19:01;;;;;;;26.08;16.27;;;-1.20;99.90;;;;;;5119616;27;20051;-70
2021/12/21 02:21:40;;;;;;;27.10;16.30;;;-1.30;99.90;;;;;;5124669;27;20110;-70
2021/12/21 02:24:11;;;;;;;30.85;17.00;;;-1.30;99.90;;;;;;5131145;27;20498;-70
2021/12/21 02:26:43;;;;;;;27.73;15.70;;;-1.30;99.90;;;;;;5112155;27;20044;-70
2021/12/21 02:29:25;;;;;;;25.98;14.60;;;-1.30;99.80;;;;;;5128836;27;20047;-70
2021/12/21 02:31:52;;;;;;;26.77;15.13;;;-1.40;99.90;;;;;;5121103;27;20047;-70
2021/12/21 02:34:20;;;;;;;23.42;14.23;;;-1.40;99.80;;;;;;5125214;27;20043;-70
2021/12/21 02:36:50;;;;;;;26.17;15.75;;;-1.40;99.80;;;;;;5116708;27;20054;-70
2021/12/21 02:39:16;;;;;;;24.80;14.75;;;-1.40;99.80;;;;;;5127896;27;20497;-70
2021/12/21 02:41:43;;;;;;;25.10;15.95;;;-1.50;99.80;;;;;;5125510;27;20039;-70
2021/12/21 02:44:09;;;;;;;24.05;14.55;;;-1.50;99.90;;;;;;5120305;27;20101;-70
2021/12/21 02:46:39;;;;;;;24.77;14.60;;;-1.60;99.90;;;;;;5120948;27;20043;-70
2021/12/21 02:49:06;;;;;;;28.80;15.02;;;-1.50;99.90;;;;;;5147152;27;20138;-70
2021/12/21 02:51:31;;;;;;;24.73;14.00;;;-1.50;99.90;;;;;;5128247;27;20309;-70
2021/12/21 02:53:57;;;;;;;23.60;14.50;;;-1.50;99.90;;;;;;5156236;27;20041;-71
2021/12/21 02:56:23;;;;;;;21.60;13.90;;;-1.50;99.90;;;;;;5156748;27;20487;-70
2021/12/21 02:58:49;;;;;;;20.50;13.57;;;-1.50;99.80;;;;;;5119231;27;20042;-70
2021/12/21 03:01:14;;;;;;;23.52;14.95;;;-1.50;99.80;;;;;;5114874;27;20612;-70
2021/12/21 03:03:40;;;;;;;25.88;16.10;;;-1.50;99.90;;;;;;5115983;27;20066;-70
2021/12/21 03:06:12;;;;;;;24.45;15.90;;;-1.50;99.90;;;;;;5123102;27;20121;-70
2021/12/21 03:08:44;;;;;;;26.90;16.27;;;-1.50;99.90;;;;;;5145481;27;20436;-70
2021/12/21 03:11:22;;;;;;;23.92;15.40;;;-1.40;99.90;;;;;;5151613;27;20505;-70
2021/12/21 03:14:08;;;;;;;27.42;15.00;;;-1.50;99.90;;;;;;5122576;27;20047;-70
2021/12/21 03:16:37;;;;;;;27.70;14.77;;;-1.40;99.90;;;;;;5116559;27;20054;-70
2021/12/21 03:19:05;;;;;;;24.50;15.25;;;-1.50;99.90;;;;;;5121326;27;20500;-70
2021/12/21 03:21:32;;;;;;;25.20;15.68;;;-1.50;99.90;;;;;;5116789;27;20115;-70
2021/12/21 03:23:58;;;;;;;28.65;16.10;;;-1.50;99.90;;;;;;5120328;27;20084;-70
2021/12/21 03:26:24;;;;;;;25.02;15.57;;;-1.50;99.90;;;;;;5125173;27;20705;-70
2021/12/21 03:28:50;;;;;;;24.67;15.18;;;-1.50;99.80;;;;;;5127430;27;20401;-70
2021/12/21 03:31:16;;;;;;;26.13;14.90;;;-1.60;99.80;;;;;;5118851;27;20628;-70
2021/12/21 03:33:43;;;;;;;21.13;15.07;;;-1.60;99.70;;;;;;5127638;27;20043;-70
2021/12/21 03:36:08;;;;;;;24.70;15.65;;;-1.60;99.80;;;;;;5119253;27;20042;-70
2021/12/21 03:38:35;;;;;;;26.83;16.63;;;-1.60;99.70;;;;;;5124555;27;20039;-70
2021/12/21 03:41:05;;;;;;;28.38;15.68;;;-1.70;99.70;;;;;;5110346;27;21905;-70
2021/12/21 03:43:31;;;;;;;28.15;15.00;;;-1.70;99.90;;;;;;5123607;27;20061;-70
2021/12/21 03:46:18;;;;;;;22.93;14.73;;;-1.70;99.80;;;;;;5123716;27;20548;-70
2021/12/21 03:48:46;;;;;;;24.67;15.27;;;-1.70;99.80;;;;;;5127418;27;20516;-70
2021/12/21 03:51:18;;;;;;;24.00;15.45;;;-1.70;99.90;;;;;;5126480;27;20055;-70
2021/12/21 03:53:44;;;;;;;25.20;16.30;;;-1.70;99.80;;;;;;5123150;27;20152;-70
2021/12/21 03:56:38;;;;;;;25.80;15.33;;;-1.80;99.70;;;;;;5122562;27;20763;-70
2021/12/21 03:59:04;;;;;;;23.65;14.35;;;-1.80;99.70;;;;;;5126849;27;20925;-70
2021/12/21 04:01:30;;;;;;;25.00;15.10;;;-1.90;99.80;;;;;;5117755;27;20054;-70
2021/12/21 04:03:55;;;;;;;23.08;15.15;;;-1.90;99.90;;;;;;5153471;27;20035;-70
2021/12/21 04:06:21;;;;;;;25.88;14.93;;;-1.90;99.90;;;;;;5116873;27;20046;-70
2021/12/21 04:08:46;;;;;;;26.65;14.50;;;-1.90;99.90;;;;;;5118777;27;20039;-70
2021/12/21 04:11:12;;;;;;;23.20;15.00;;;-1.90;99.90;;;;;;5116470;27;20051;-70
2021/12/21 04:13:38;;;;;;;24.35;15.05;;;-1.90;99.90;;;;;;5154990;27;20072;-70
2021/12/21 04:16:05;;;;;;;21.67;14.77;;;-1.90;99.90;;;;;;5148974;27;20110;-70
2021/12/21 04:18:35;;;;;;;23.83;14.75;;;-1.90;99.90;;;;;;5113758;27;20058;-70
2021/12/21 04:21:03;;;;;;;25.80;15.65;;;-1.90;99.90;;;;;;5119676;27;20046;-70
2021/12/21 04:23:29;;;;;;;23.30;14.52;;;-1.90;99.90;;;;;;5126196;27;20031;-70
2021/12/21 04:25:54;;;;;;;22.38;15.18;;;-1.90;99.90;;;;;;5156702;27;20508;-71
2021/12/21 04:28:20;;;;;;;22.65;14.15;;;-1.90;99.90;;;;;;5123786;27;20051;-70
2021/12/21 04:30:45;;;;;;;23.95;15.70;;;-1.90;99.90;;;;;;5120794;27;20585;-70
2021/12/21 04:33:11;;;;;;;25.00;14.75;;;-1.90;99.90;;;;;;5112733;28;20040;-70
2021/12/21 04:35:37;;;;;;;21.88;14.77;;;-1.90;99.90;;;;;;5128102;27;20061;-70
2021/12/21 04:38:19;;;;;;;26.20;14.93;;;-1.90;99.90;;;;;;5116614;27;20088;-70
2021/12/21 04:40:48;;;;;;;25.55;15.15;;;-1.90;99.90;;;;;;5114791;27;20113;-70
2021/12/21 04:43:14;;;;;;;23.70;15.25;;;-2.00;99.90;;;;;;5114136;27;20398;-70
2021/12/21 04:45:39;;;;;;;24.63;16.30;;;-2.00;99.90;;;;;;5123380;27;20050;-70
2021/12/21 04:48:05;;;;;;;22.15;15.48;;;-2.10;99.90;;;;;;5147785;27;20067;-70
2021/12/21 04:50:31;;;;;;;24.83;16.73;;;-2.10;99.90;;;;;;5125311;27;20059;-70
2021/12/21 04:52:56;;;;;;;26.10;15.88;;;-2.10;99.90;;;;;;5114867;27;20656;-70
2021/12/21 04:55:22;;;;;;;27.08;16.08;;;-2.10;99.90;;;;;;5119364;27;20081;-70
2021/12/21 04:57:48;;;;;;;23.75;17.45;;;-2.20;99.90;;;;;;5161187;27;20482;-71
2021/12/21 05:00:14;;;;;;;28.25;17.42;;;-2.10;99.90;;;;;;5119605;27;20043;-70
2021/12/21 05:02:40;;;;;;;22.55;16.35;;;-2.10;99.90;;;;;;5121121;27;20039;-70
2021/12/21 05:05:06;;;;;;;25.77;16.92;;;-2.00;99.90;;;;;;5121611;27;20053;-70
2021/12/21 05:07:35;;;;;;;25.85;16.40;;;-2.00;99.90;;;;;;5118111;27;20062;-70
2021/12/21 05:10:02;;;;;;;24.92;16.00;;;-2.00;99.90;;;;;;5110816;27;20125;-70
2021/12/21 05:12:28;;;;;;;21.60;16.50;;;-1.90;99.90;;;;;;5117913;27;20108;-70
2021/12/21 05:14:55;;;;;;;23.45;15.95;;;-1.90;99.90;;;;;;5120028;27;20451;-70
2021/12/21 05:17:20;;;;;;;26.13;16.77;;;-1.90;99.90;;;;;;5124899;27;20057;-70
2021/12/21 05:19:46;;;;;;;25.25;16.58;;;-1.90;99.90;;;;;;5126116;27;20047;-70
2021/12/21 05:22:12;;;;;;;27.40;16.63;;;-1.90;99.90;;;;;;5149549;27;20036;-70
2021/12/21 05:24:39;;;;;;;25.67;17.23;;;-1.90;99.90;;;;;;5122583;27;20047;-70
2021/12/21 05:27:05;;;;;;;24.02;16.80;;;-2.00;99.90;;;;;;5114379;27;20046;-70
2021/12/21 05:29:31;;;;;;;27.85;16.95;;;-2.00;99.90;;;;;;5107361;28;20473;-70
2021/12/21 05:31:59;;;;;;;28.33;18.25;;;-2.00;99.90;;;;;;5123252;27;20071;-70
2021/12/21 05:34:26;;;;;;;29.83;19.00;;;-2.00;99.90;;;;;;5158536;27;20486;-69
2021/12/21 05:36:51;;;;;;;27.05;18.40;;;-2.00;99.90;;;;;;5126530;27;20055;-70
2021/12/21 05:39:21;;;;;;;26.90;17.48;;;-2.00;99.90;;;;;;5120853;27;20611;-70
2021/12/21 05:41:51;;;;;;;26.08;16.60;;;-2.00;99.90;;;;;;5116794;27;20139;-70
2021/12/21 05:44:22;;;;;;;24.98;18.55;;;-2.00;99.90;;;;;;5142300;27;20446;-70
2021/12/21 05:46:50;;;;;;;28.50;18.10;;;-2.00;99.90;;;;;;5115832;27;20412;-70
2021/12/21 05:49:16;;;;;;;29.48;18.63;;;-2.10;99.90;;;;;;5118713;28;20495;-70
2021/12/21 05:51:43;;;;;;;28.25;18.00;;;-2.10;99.80;;;;;;5125917;27;20092;-70
2021/12/21 05:54:08;;;;;;;28.75;18.35;;;-2.10;99.60;;;;;;5115684;27;20057;-70
2021/12/21 05:56:35;;;;;;;26.75;18.60;;;-2.10;99.50;;;;;;5159193;27;20486;-70
2021/12/21 05:59:02;;;;;;;32.97;19.40;;;-2.20;99.60;;;;;;5124046;27;20545;-70
2021/12/21 06:01:28;;;;;;;29.60;19.70;;;-2.20;99.90;;;;;;5121652;27;20050;-70
2021/12/21 06:03:53;;;;;;;28.50;18.58;;;-2.10;99.90;;;;;;5119071;27;20047;-70
2021/12/21 06:06:19;;;;;;;30.13;18.50;;;-2.10;99.90;;;;;;5151088;27;20050;-70
2021/12/21 06:08:47;;;;;;;26.77;18.48;;;-2.20;99.60;;;;;;5120939;28;20043;-70
2021/12/21 06:11:14;;;;;;;29.30;18.15;;;-2.20;99.50;;;;;;5127592;28;20398;-70
2021/12/21 06:22:45;;;;;;;26.35;17.75;;;-2.30;99.60;;;;;;5137325;27;20036;-70
2021/12/21 06:26:40;;;;;;;27.52;16.67;;;-2.30;99.60;;;;;;5116855;28;20858;-70
2021/12/21 06:29:06;;;;;;;31.95;17.67;;;-2.40;99.60;;;;;;5148847;27;20135;-71
2021/12/21 06:31:32;;;;;;;26.02;16.63;;;-2.40;99.70;;;;;;5114220;28;20039;-69
2021/12/21 06:33:58;;;;;;;34.97;18.15;;;-2.30;99.90;;;;;;5111093;27;20491;-69
2021/12/21 06:36:24;;;;;;;24.48;16.27;;;-2.30;99.90;;;;;;5152361;27;20040;-70
2021/12/21 06:38:50;;;;;;;24.88;16.85;;;-2.30;99.90;;;;;;5107342;28;20062;-69
2021/12/21 06:41:16;;;;;;;26.63;17.27;;;-2.30;99.80;;;;;;5138583;27;20039;-70
2021/12/21 06:43:42;;;;;;;26.42;17.13;;;-2.30;99.80;;;;;;5118602;28;20099;-70
2021/12/21 06:46:18;;;;;;;27.65;17.45;;;-2.30;99.90;;;;;;5118507;28;20035;-69
2021/12/21 06:51:39;;;;;;;27.00;16.98;;;-2.30;99.80;;;;;;5084071;28;20407;-70
2021/12/21 06:54:05;;;;;;;29.27;17.48;;;-2.30;99.90;;;;;;5082718;28;20106;-70
2021/12/21 06:56:31;;;;;;;28.88;17.15;;;-2.30;99.60;;;;;;5082941;28;20622;-69
2021/12/21 06:58:56;;;;;;;24.02;17.50;;;-2.30;99.80;;;;;;5083924;28;20039;-70
2021/12/21 07:01:25;;;;;;;27.35;16.52;;;-2.30;99.90;;;;;;5087665;28;20419;-70
2021/12/21 07:03:51;;;;;;;26.98;17.00;;;-2.30;99.90;;;;;;5082101;28;20072;-70
2021/12/21 07:06:18;;;;;;;30.08;16.92;;;-2.30;99.70;;;;;;5087117;28;20040;-70
2021/12/21 07:08:47;;;;;;;28.38;17.00;;;-2.30;99.60;;;;;;5086950;28;20060;-70
2021/12/21 07:11:31;;;;;;;27.40;17.45;;;-2.30;99.50;;;;;;5088113;28;20048;-70
2021/12/21 07:19:27;;;;;;;24.88;16.25;;;-2.30;99.90;;;;;;5087310;28;20131;-70
2021/12/21 07:21:52;;;;;;;23.52;15.23;;;-2.30;99.90;;;;;;5087555;28;20127;-70
2021/12/21 07:24:18;;;;;;;27.75;16.13;;;-2.20;99.90;;;;;;5088085;28;20044;-69
2021/12/21 07:26:44;;;;;;;24.13;15.48;;;-2.30;99.60;;;;;;5087108;28;20051;-69
2021/12/21 07:29:09;;;;;;;25.80;15.50;;;-2.30;99.60;;;;;;5084983;28;20048;-70
2021/12/21 07:31:36;;;;;;;24.30;15.52;;;-2.30;99.70;;;;;;5087874;28;20461;-70
2021/12/21 07:34:02;;;;;;;22.77;15.25;;;-2.40;99.70;;;;;;5087973;28;20031;-70
2021/12/21 07:36:32;;;;;;;27.45;15.48;;;-2.40;99.80;;;;;;5120559;27;20028;-70
2021/12/21 07:39:06;;;;;;;24.80;15.43;;;-2.40;99.70;;;;;;5086074;28;20522;-70
2021/12/21 07:41:31;;;;;;;22.75;14.73;;;-2.50;99.70;;;;;;5086379;28;20415;-70
2021/12/21 07:43:57;;;;;;;26.35;16.08;;;-2.50;99.90;;;;;;5086640;28;20039;-70
2021/12/21 07:46:23;;;;;;;26.90;14.88;;;-2.50;99.90;;;;;;5086053;28;20040;-70
2021/12/21 07:48:49;;;;;;;26.08;16.17;;;-2.50;99.90;;;;;;5087013;28;20044;-70
2021/12/21 07:51:15;;;;;;;23.55;15.23;;;-2.50;99.90;;;;;;5092089;28;20533;-70
2021/12/21 07:53:42;;;;;;;25.80;15.80;;;-2.40;99.90;;;;;;5083015;28;20135;-70
2021/12/21 07:56:09;;;;;;;24.13;15.30;;;-2.40;99.90;;;;;;5114905;27;20041;-70
2021/12/21 07:58:35;;;;;;;24.95;14.68;;;-2.40;99.90;;;;;;5086977;28;20048;-70
2021/12/21 08:01:04;;;;;;;24.48;15.25;;;-2.40;99.90;;;;;;5083554;28;20043;-70
2021/12/21 08:03:33;;;;;;;22.02;15.95;;;-2.40;99.90;;;;;;5083562;28;20047;-70
2021/12/21 08:05:59;;;;;;;25.20;15.10;;;-2.40;99.80;;;;;;5093702;28;20036;-70
2021/12/21 08:08:28;;;;;;;26.02;15.88;;;-2.30;99.90;;;;;;5084018;28;20071;-70
2021/12/21 08:11:08;;;;;;;27.23;15.40;;;-2.30;99.90;;;;;;5084447;28;20535;-70
2021/12/21 08:13:35;;;;;;;25.13;15.82;;;-2.30;99.90;;;;;;5081335;28;20117;-70
2021/12/21 08:16:01;;;;;;;25.27;16.00;;;-2.30;99.90;;;;;;5078382;28;20048;-70
2021/12/21 08:18:26;;;;;;;26.58;16.23;;;-2.30;99.90;;;;;;5077201;28;20127;-70
2021/12/21 08:20:52;;;;;;;28.63;18.10;;;-2.30;99.90;;;;;;5086606;28;20051;-70
2021/12/21 08:23:18;;;;;;;25.25;17.40;;;-2.20;99.90;;;;;;5076168;28;20518;-70
2021/12/21 08:25:44;;;;;;;27.90;18.25;;;-2.20;99.90;;;;;;5069113;28;20048;-73
2021/12/21 08:28:10;;;;;;;27.25;18.08;;;-2.20;99.90;;;;;;5114472;27;22014;-72
2021/12/21 08:30:36;;;;;;;22.95;16.60;;;-2.10;99.90;;;;;;5087857;28;20076;-72
2021/12/21 08:33:03;;;;;;;26.98;18.02;;;-2.10;99.90;;;;;;5068195;28;20077;-72
2021/12/21 08:35:30;;;;;;;25.67;17.73;;;-2.10;99.90;;;;;;5106213;27;20042;-69
2021/12/21 08:38:03;;;;;;;30.08;18.63;;;-2.10;99.90;;;;;;5084873;28;20452;-70
2021/12/21 08:40:37;;;;;;;26.05;17.25;;;-2.10;99.90;;;;;;5070034;28;20119;-70
2021/12/21 08:43:05;;;;;;;28.88;17.90;;;-2.00;99.90;;;;;;5078113;28;20083;-70
2021/12/21 08:45:31;;;;;;;25.70;17.40;;;-2.00;99.90;;;;;;5106013;27;20056;-70
2021/12/21 08:47:59;;;;;;;30.27;19.08;;;-1.90;99.90;;;;;;5083964;27;20123;-70
2021/12/21 08:50:25;;;;;;;;;;;-1.80;99.90;;;;;;5111171;27;20055;-70
2021/12/21 08:52:50;;;;;;;27.77;19.10;;;-1.80;99.90;;;;;;5119931;27;20254;-70
2021/12/21 08:55:17;;;;;;;38.25;21.90;;;-1.70;99.90;;;;;;5126048;27;20038;-70
2021/12/21 08:57:43;;;;;;;35.65;23.63;;;-1.60;99.90;;;;;;5127298;27;20054;-70
2021/12/21 09:00:09;;;;;;;39.00;23.25;;;-1.60;99.90;;;;;;5122198;27;20226;-70
2021/12/21 09:02:37;;;;;;;33.33;22.27;;;-1.50;99.90;;;;;;5127307;27;20513;-69
2021/12/21 09:05:10;;;;;;;34.10;23.80;;;-1.40;99.90;;;;;;5124953;27;20035;-70
2021/12/21 09:07:36;;;;;;;35.05;22.98;;;-1.30;99.90;;;;;;5126550;27;20039;-71
2021/12/21 09:10:02;;;;;;;38.08;25.95;;;-1.30;99.90;;;;;;5127584;27;20080;-70
2021/12/21 09:12:28;;;;;;;37.28;25.83;;;-1.20;99.90;;;;;;5110626;27;20405;-68
2021/12/21 09:14:54;;;;;;;31.67;23.02;;;-1.20;99.90;;;;;;5110080;27;20047;-70
2021/12/21 09:17:19;;;;;;;35.42;24.58;;;-1.20;99.90;;;;;;5152054;27;20078;-70
2021/12/21 09:19:45;;;;;;;34.30;25.05;;;-1.10;99.90;;;;;;5151138;27;20070;-69
2021/12/21 09:22:10;;;;;;;33.95;24.27;;;-1.00;99.90;;;;;;5111511;27;20096;-70
2021/12/21 09:24:36;;;;;;;31.83;24.35;;;-1.00;99.90;;;;;;5121192;27;20044;-70
2021/12/21 09:27:02;;;;;;;34.47;23.85;;;-0.90;99.90;;;;;;5113932;27;20542;-70
2021/12/21 09:29:27;;;;;;;30.90;25.63;;;-0.90;99.90;;;;;;5107102;28;20047;-70
2021/12/21 09:31:53;;;;;;;35.33;27.95;;;-0.90;99.90;;;;;;5106017;28;20051;-69
2021/12/21 09:34:18;;;;;;;33.63;25.60;;;-0.80;99.90;;;;;;5108007;28;20417;-70
2021/12/21 09:36:44;;;;;;;34.53;25.27;;;-0.80;99.90;;;;;;5117954;27;20042;-69
2021/12/21 09:39:10;;;;;;;31.42;24.48;;;-0.70;99.90;;;;;;5110351;27;20429;-69
2021/12/21 09:41:35;;;;;;;32.95;24.20;;;-0.60;99.90;;;;;;5156968;27;20096;-68
2021/12/21 09:44:02;;;;;;;33.20;24.08;;;-0.50;99.90;;;;;;5127322;27;20243;-69
2021/12/21 09:46:27;;;;;;;32.10;23.15;;;-0.60;99.90;;;;;;5109854;28;20059;-69
2021/12/21 09:48:53;;;;;;;30.27;23.52;;;-0.50;99.90;;;;;;5140313;27;20058;-69
2021/12/21 09:51:19;;;;;;;29.52;22.33;;;-0.50;99.90;;;;;;5119405;28;20444;-69
2021/12/21 09:53:45;;;;;;;29.65;24.13;;;-0.50;99.90;;;;;;5121769;28;20131;-69
2021/12/21 09:56:10;;;;;;;30.95;23.05;;;-0.40;99.90;;;;;;5120415;27;20921;-69
2021/12/21 09:58:36;;;;;;;32.15;23.27;;;-0.40;99.90;;;;;;5124653;27;20059;-70
2021/12/21 10:01:03;;;;;;;31.50;25.85;;;-0.30;99.90;;;;;;5146227;27;20047;-70
2021/12/21 10:03:29;;;;;;;35.42;28.50;;;-0.30;99.90;;;;;;5127323;27;20047;-70
2021/12/21 10:06:10;;;;;;;35.22;25.63;;;-0.30;99.90;;;;;;5109809;28;21549;-73
2021/12/21 10:08:37;;;;;;;32.35;22.58;;;-0.20;99.90;;;;;;5117716;27;20464;-71
2021/12/21 10:11:06;;;;;;;33.65;25.08;;;-0.20;99.90;;;;;;5116156;27;20117;-73
2021/12/21 10:13:35;;;;;;;36.88;25.10;;;-0.20;99.90;;;;;;5123144;28;20043;-70
2021/12/21 10:16:04;;;;;;;33.40;26.52;;;-0.10;99.90;;;;;;5123745;28;20084;-70
2021/12/21 10:18:38;;;;;;;35.08;26.88;;;-0.10;99.90;;;;;;5122850;28;20482;-70
2021/12/21 10:21:05;;;;;;;36.25;28.40;;;0.00;99.90;;;;;;5115934;28;20031;-70
2021/12/21 10:23:33;;;;;;;;;;;0.00;99.90;;;;;;5116837;28;20052;-69
2021/12/21 10:26:00;;;;;;;;;;;0.00;99.90;;;;;;5111775;27;20421;-70
2021/12/21 10:28:42;;;;;;;32.95;27.45;;;0.10;99.90;;;;;;5122714;28;20438;-71
2021/12/21 10:31:10;;;;;;;37.00;29.25;;;0.10;99.90;;;;;;5108237;28;20072;-70
2021/12/21 10:33:39;;;;;;;35.95;30.15;;;0.20;99.90;;;;;;5114858;27;20043;-70
2021/12/21 10:36:07;;;;;;;38.28;29.98;;;0.20;99.90;;;;;;5117835;27;20041;-70
2021/12/21 10:38:36;;;;;;;38.85;31.13;;;0.30;99.90;;;;;;5131447;27;20374;-71
2021/12/21 10:41:11;;;;;;;35.20;30.15;;;0.30;99.90;;;;;;5114760;27;20044;-72
2021/12/21 10:43:37;;;;;;;36.88;29.40;;;0.40;99.90;;;;;;5112652;27;20055;-72
2021/12/21 10:46:03;;;;;;;37.38;30.10;;;0.50;99.90;;;;;;5148758;27;20043;-72
2021/12/21 10:48:30;;;;;;;36.95;29.65;;;0.50;99.90;;;;;;5115291;27;20047;-72
2021/12/21 10:50:56;;;;;;;37.05;29.63;;;0.50;99.90;;;;;;5129914;27;20510;-71
2021/12/21 10:53:26;;;;;;;38.63;30.95;;;0.60;99.90;;;;;;5110604;27;20050;-71
2021/12/21 10:56:07;;;;;;;39.38;31.50;;;0.60;99.90;;;;;;5119192;27;20160;-71
2021/12/21 10:58:40;;;;;;;41.38;31.77;;;0.60;99.90;;;;;;5115643;27;20087;-72
2021/12/21 11:01:10;;;;;;;39.75;33.97;;;0.70;99.90;;;;;;5120822;27;20043;-71
2021/12/21 11:03:49;;;;;;;39.75;33.90;;;0.70;99.90;;;;;;5132357;27;20047;-70
2021/12/21 11:06:16;;;;;;;39.15;33.85;;;0.70;99.90;;;;;;5127555;27;20069;-71
2021/12/21 11:08:45;;;;;;;41.42;33.97;;;0.80;99.90;;;;;;5108510;28;20051;-72
2021/12/21 11:11:28;;;;;;;42.45;35.85;;;0.80;99.90;;;;;;5124692;27;20740;-71
2021/12/21 11:14:13;;;;;;;43.00;34.35;;;0.90;99.90;;;;;;5143475;27;20055;-72
2021/12/21 11:16:46;;;;;;;46.95;38.42;;;0.90;99.90;;;;;;5108492;27;20047;-73
2021/12/21 11:19:15;;;;;;;45.72;37.45;;;1.00;99.90;;;;;;5121871;27;20126;-69
2021/12/21 11:21:42;;;;;;;48.05;38.75;;;1.00;99.90;;;;;;5117140;27;20131;-71
2021/12/21 11:24:10;;;;;;;48.70;37.75;;;1.10;99.90;;;;;;5139884;27;20663;-72
2021/12/21 11:26:38;;;;;;;43.95;38.08;;;1.10;99.90;;;;;;5108309;28;20143;-71
2021/12/21 11:29:11;;;;;;;43.83;37.38;;;1.20;99.90;;;;;;5109133;27;20047;-71
2021/12/21 11:31:42;;;;;;;53.88;37.42;;;1.20;99.90;;;;;;5120891;27;20039;-73
2021/12/21 11:34:14;;;;;;;56.42;38.45;;;1.30;99.90;;;;;;5110031;27;20693;-72
2021/12/21 11:39:33;;;;;;;65.53;38.28;;;1.40;99.90;;;;;;5127197;27;20079;-73
2021/12/21 11:42:05;;;;;;;51.83;37.70;;;1.40;99.90;;;;;;5115581;27;20861;-73
2021/12/21 11:45:03;;;;;;;59.70;37.88;;;1.50;99.90;;;;;;5107867;28;20071;-73
2021/12/21 11:47:47;;;;;;;46.63;34.83;;;1.50;99.90;;;;;;5109613;27;20397;-72
2021/12/21 11:50:14;;;;;;;45.30;32.10;;;1.60;99.90;;;;;;5109962;27;20145;-76
2021/12/21 11:52:52;;;;;;;42.63;33.30;;;1.60;99.90;;;;;;5110773;27;20078;-72
2021/12/21 11:55:20;;;;;;;42.55;32.95;;;1.70;99.90;;;;;;5111107;27;20039;-72
2021/12/21 11:57:50;;;;;;;42.45;33.08;;;1.70;99.90;;;;;;5111530;27;20058;-72
2021/12/21 12:00:20;;;;;;;40.10;32.67;;;1.80;99.90;;;;;;5112142;27;20130;-72
2021/12/21 12:02:47;;;;;;;43.85;32.83;;;1.80;99.90;;;;;;5131653;27;20054;-71
2021/12/21 12:05:17;;;;;;;42.92;31.92;;;1.80;99.90;;;;;;5110631;27;20044;-72
2021/12/21 12:07:42;;;;;;;42.50;36.60;;;1.90;99.90;;;;;;5123730;27;20441;-73
2021/12/21 12:10:15;;;;;;;42.97;37.40;;;1.90;99.90;;;;;;5120090;27;20050;-72
2021/12/21 12:12:41;;;;;;;44.58;37.80;;;1.90;99.90;;;;;;5115170;27;20047;-73
2021/12/21 12:15:09;;;;;;;52.05;38.65;;;2.00;99.90;;;;;;5124717;27;20438;-74
2021/12/21 12:17:45;;;;;;;44.10;35.78;;;2.00;99.90;;;;;;5128723;27;20609;-73
2021/12/21 12:20:12;;;;;;;50.88;33.20;;;2.00;99.90;;;;;;5118045;27;20039;-73
2021/12/21 12:22:40;;;;;;;41.83;29.48;;;2.00;99.90;;;;;;5120843;27;20047;-73
2021/12/21 12:25:18;;;;;;;34.60;28.25;;;2.00;99.90;;;;;;5119035;27;20103;-71
2021/12/21 12:27:47;;;;;;;35.25;28.17;;;2.00;99.90;;;;;;5121424;27;20051;-71
2021/12/21 12:30:16;;;;;;;37.63;29.27;;;2.00;99.90;;;;;;5110634;27;20395;-72
2021/12/21 12:32:46;;;;;;;39.53;29.92;;;2.10;99.90;;;;;;5122766;27;20114;-72
2021/12/21 12:35:16;;;;;;;36.40;30.23;;;2.10;99.90;;;;;;5147623;27;20043;-73
2021/12/21 12:37:54;;;;;;;39.55;30.85;;;2.10;99.90;;;;;;5125660;27;20378;-72
2021/12/21 12:40:25;;;;;;;39.00;31.27;;;2.20;99.90;;;;;;5117165;27;20054;-72
2021/12/21 12:43:08;;;;;;;34.75;28.65;;;2.20;99.90;;;;;;5118463;27;20066;-72
2021/12/21 12:45:36;;;;;;;35.97;27.60;;;2.20;99.90;;;;;;5124702;27;20038;-72
2021/12/21 12:48:03;;;;;;;37.08;28.95;;;2.30;99.90;;;;;;5111165;27;20055;-70
2021/12/21 12:50:36;;;;;;;37.60;29.50;;;2.30;99.90;;;;;;5110210;28;20052;-70
2021/12/21 12:53:05;;;;;;;38.05;30.85;;;2.30;99.90;;;;;;5115266;27;20375;-70
2021/12/21 12:55:49;;;;;;;113.00;36.85;;;2.30;99.90;;;;;;5119452;27;20050;-70
2021/12/21 12:58:24;;;;;;;77.38;35.38;;;2.40;99.90;;;;;;5161985;27;20043;-70
2021/12/21 13:00:57;;;;;;;60.85;34.15;;;2.40;99.90;;;;;;5120860;27;20051;-70
2021/12/21 13:03:32;;;;;;;49.83;32.40;;;2.40;99.90;;;;;;5129080;27;20038;-71
2021/12/21 13:05:59;;;;;;;49.25;33.42;;;2.40;99.90;;;;;;5106858;28;20169;-70
2021/12/21 13:08:26;;;;;;;40.97;30.05;;;2.40;99.90;;;;;;5121619;27;20043;-70
2021/12/21 13:10:58;;;;;;;44.03;26.23;;;2.40;99.90;;;;;;5124035;27;20043;-69
2021/12/21 13:13:36;;;;;;;31.05;24.25;;;2.40;99.90;;;;;;5111180;27;20047;-69
2021/12/21 13:16:10;;;;;;;31.45;24.67;;;2.50;99.90;;;;;;5134558;27;20038;-70
2021/12/21 13:18:46;;;;;;;32.03;24.30;;;2.50;99.90;;;;;;5126307;27;20047;-70
2021/12/21 13:21:33;;;;;;;37.05;25.05;;;2.50;99.90;;;;;;5109094;27;20039;-70
2021/12/21 13:24:29;;;;;;;34.25;24.77;;;2.50;99.90;;;;;;5111528;27;20039;-70
2021/12/21 13:26:57;;;;;;;35.80;24.98;;;2.50;99.90;;;;;;5107983;27;20049;-70